sensor_id;sensor_type;location;lat;lon;timestamp;P1;durP1;ratioP1;P2;durP2;ratioP2
56537;SDS011;42435;53.292;6.000;2023-04-05T00:01:28;9.32;;;4.90;;
56537;SDS011;42435;53.292;6.000;2023-04-05T00:03:55;7.82;;;4.65;;
56537;SDS011;42435;53.292;6.000;2023-04-05T00:06:24;7.32;;;4.65;;
56537;SDS011;42435;53.292;6.000;2023-04-05T00:08:53;8.73;;;4.90;;
56537;SDS011;42435;53.292;6.000;2023-04-05T00:11:22;7.40;;;4.30;;
56537;SDS011;42435;53.292;6.000;2023-04-05T00:13:48;9.93;;;4.80;;
56537;SDS011;42435;53.292;6.000;2023-04-05T00:16:18;8.23;;;4.93;;
56537;SDS011;42435;53.292;6.000;2023-04-05T00:18:44;7.93;;;5.07;;
56537;SDS011;42435;53.292;6.000;2023-04-05T00:21:18;7.00;;;4.07;;
56537;SDS011;42435;53.292;6.000;2023-04-05T00:23:48;8.18;;;4.45;;
56537;SDS011;42435;53.292;6.000;2023-04-05T00:26:15;8.32;;;5.03;;
56537;SDS011;42435;53.292;6.000;2023-04-05T00:28:41;8.27;;;4.97;;
56537;SDS011;42435;53.292;6.000;2023-04-05T00:31:07;11.05;;;4.95;;
56537;SDS011;42435;53.292;6.000;2023-04-05T00:33:32;8.30;;;4.60;;
56537;SDS011;42435;53.292;6.000;2023-04-05T00:36:07;8.10;;;4.75;;
56537;SDS011;42435;53.292;6.000;2023-04-05T00:38:36;6.53;;;4.28;;
56537;SDS011;42435;53.292;6.000;2023-04-05T00:41:02;8.13;;;5.32;;
56537;SDS011;42435;53.292;6.000;2023-04-05T00:43:28;9.13;;;4.60;;
56537;SDS011;42435;53.292;6.000;2023-04-05T00:45:53;8.90;;;5.85;;
56537;SDS011;42435;53.292;6.000;2023-04-05T00:48:20;8.27;;;4.45;;
56537;SDS011;42435;53.292;6.000;2023-04-05T00:50:47;8.43;;;5.05;;
56537;SDS011;42435;53.292;6.000;2023-04-05T00:53:17;8.20;;;4.57;;
56537;SDS011;42435;53.292;6.000;2023-04-05T00:55:47;7.88;;;5.00;;
56537;SDS011;42435;53.292;6.000;2023-04-05T00:58:16;8.70;;;5.20;;
56537;SDS011;42435;53.292;6.000;2023-04-05T01:03:42;8.27;;;4.95;;
56537;SDS011;42435;53.292;6.000;2023-04-05T01:11:37;9.45;;;4.60;;
56537;SDS011;42435;53.292;6.000;2023-04-05T01:14:07;8.45;;;4.97;;
56537;SDS011;42435;53.292;6.000;2023-04-05T01:16:32;7.47;;;4.90;;
56537;SDS011;42435;53.292;6.000;2023-04-05T01:18:58;9.95;;;5.13;;
56537;SDS011;42435;53.292;6.000;2023-04-05T01:24:03;10.10;;;4.85;;
56537;SDS011;42435;53.292;6.000;2023-04-05T01:29:44;8.43;;;4.72;;
56537;SDS011;42435;53.292;6.000;2023-04-05T01:32:19;9.10;;;4.82;;
56537;SDS011;42435;53.292;6.000;2023-04-05T01:37:41;12.70;;;5.30;;
56537;SDS011;42435;53.292;6.000;2023-04-05T01:40:12;9.27;;;4.55;;
56537;SDS011;42435;53.292;6.000;2023-04-05T01:42:37;8.63;;;4.68;;
56537;SDS011;42435;53.292;6.000;2023-04-05T01:45:08;9.10;;;5.13;;
56537;SDS011;42435;53.292;6.000;2023-04-05T01:47:36;7.43;;;4.75;;
56537;SDS011;42435;53.292;6.000;2023-04-05T01:50:02;6.80;;;4.40;;
56537;SDS011;42435;53.292;6.000;2023-04-05T01:52:28;10.45;;;4.95;;
56537;SDS011;42435;53.292;6.000;2023-04-05T01:54:53;10.65;;;4.90;;
56537;SDS011;42435;53.292;6.000;2023-04-05T01:57:19;8.50;;;4.03;;
56537;SDS011;42435;53.292;6.000;2023-04-05T01:59:45;8.45;;;4.30;;
56537;SDS011;42435;53.292;6.000;2023-04-05T02:02:10;8.35;;;4.45;;
56537;SDS011;42435;53.292;6.000;2023-04-05T02:04:36;8.07;;;5.40;;
56537;SDS011;42435;53.292;6.000;2023-04-05T02:07:04;7.65;;;4.68;;
56537;SDS011;42435;53.292;6.000;2023-04-05T02:09:30;8.55;;;4.80;;
56537;SDS011;42435;53.292;6.000;2023-04-05T02:11:56;8.10;;;4.53;;
56537;SDS011;42435;53.292;6.000;2023-04-05T02:14:22;7.97;;;4.90;;
56537;SDS011;42435;53.292;6.000;2023-04-05T02:16:48;11.68;;;5.15;;
56537;SDS011;42435;53.292;6.000;2023-04-05T02:19:15;7.30;;;4.30;;
56537;SDS011;42435;53.292;6.000;2023-04-05T02:21:47;7.32;;;4.38;;
56537;SDS011;42435;53.292;6.000;2023-04-05T02:24:13;8.05;;;4.85;;
56537;SDS011;42435;53.292;6.000;2023-04-05T02:26:39;8.25;;;4.60;;
56537;SDS011;42435;53.292;6.000;2023-04-05T02:29:05;7.90;;;4.80;;
56537;SDS011;42435;53.292;6.000;2023-04-05T02:31:30;12.50;;;5.05;;
56537;SDS011;42435;53.292;6.000;2023-04-05T02:33:56;7.22;;;5.25;;
56537;SDS011;42435;53.292;6.000;2023-04-05T02:36:24;11.27;;;5.50;;
56537;SDS011;42435;53.292;6.000;2023-04-05T02:38:52;7.15;;;4.40;;
56537;SDS011;42435;53.292;6.000;2023-04-05T02:41:18;10.55;;;5.25;;
56537;SDS011;42435;53.292;6.000;2023-04-05T02:43:44;7.22;;;4.38;;
56537;SDS011;42435;53.292;6.000;2023-04-05T02:46:10;8.15;;;4.95;;
56537;SDS011;42435;53.292;6.000;2023-04-05T02:48:36;10.25;;;4.85;;
56537;SDS011;42435;53.292;6.000;2023-04-05T02:51:02;8.38;;;4.88;;
56537;SDS011;42435;53.292;6.000;2023-04-05T02:53:28;7.70;;;4.55;;
56537;SDS011;42435;53.292;6.000;2023-04-05T02:55:58;7.47;;;4.63;;
56537;SDS011;42435;53.292;6.000;2023-04-05T02:58:24;6.60;;;3.80;;
56537;SDS011;42435;53.292;6.000;2023-04-05T03:00:50;8.05;;;4.75;;
56537;SDS011;42435;53.292;6.000;2023-04-05T03:03:21;6.13;;;4.47;;
56537;SDS011;42435;53.292;6.000;2023-04-05T03:05:48;7.95;;;4.70;;
56537;SDS011;42435;53.292;6.000;2023-04-05T03:08:24;6.78;;;4.43;;
56537;SDS011;42435;53.292;6.000;2023-04-05T03:10:50;9.02;;;4.85;;
56537;SDS011;42435;53.292;6.000;2023-04-05T03:13:16;7.72;;;4.65;;
56537;SDS011;42435;53.292;6.000;2023-04-05T03:15:42;9.98;;;4.63;;
56537;SDS011;42435;53.292;6.000;2023-04-05T03:18:08;6.68;;;4.75;;
56537;SDS011;42435;53.292;6.000;2023-04-05T03:20:34;10.77;;;5.90;;
56537;SDS011;42435;53.292;6.000;2023-04-05T03:23:07;7.47;;;4.35;;
56537;SDS011;42435;53.292;6.000;2023-04-05T03:25:34;8.93;;;4.50;;
56537;SDS011;42435;53.292;6.000;2023-04-05T03:28:02;7.25;;;4.50;;
56537;SDS011;42435;53.292;6.000;2023-04-05T03:30:30;10.05;;;5.03;;
56537;SDS011;42435;53.292;6.000;2023-04-05T03:32:56;7.18;;;5.32;;
56537;SDS011;42435;53.292;6.000;2023-04-05T03:35:25;13.05;;;5.63;;
56537;SDS011;42435;53.292;6.000;2023-04-05T03:37:52;7.75;;;4.88;;
56537;SDS011;42435;53.292;6.000;2023-04-05T03:40:17;8.13;;;5.45;;
56537;SDS011;42435;53.292;6.000;2023-04-05T03:42:43;7.43;;;5.03;;
56537;SDS011;42435;53.292;6.000;2023-04-05T03:45:10;8.38;;;5.00;;
56537;SDS011;42435;53.292;6.000;2023-04-05T03:47:35;9.40;;;5.35;;
56537;SDS011;42435;53.292;6.000;2023-04-05T03:50:01;9.18;;;5.65;;
56537;SDS011;42435;53.292;6.000;2023-04-05T03:52:27;7.70;;;5.20;;
56537;SDS011;42435;53.292;6.000;2023-04-05T03:54:53;9.32;;;5.28;;
56537;SDS011;42435;53.292;6.000;2023-04-05T03:57:19;10.85;;;5.90;;
56537;SDS011;42435;53.292;6.000;2023-04-05T03:59:44;11.07;;;5.55;;
56537;SDS011;42435;53.292;6.000;2023-04-05T04:02:10;9.60;;;5.30;;
56537;SDS011;42435;53.292;6.000;2023-04-05T04:04:36;10.57;;;5.60;;
56537;SDS011;42435;53.292;6.000;2023-04-05T04:07:01;8.73;;;5.25;;
56537;SDS011;42435;53.292;6.000;2023-04-05T04:09:27;9.60;;;5.85;;
56537;SDS011;42435;53.292;6.000;2023-04-05T04:11:54;10.88;;;5.82;;
56537;SDS011;42435;53.292;6.000;2023-04-05T04:14:21;10.10;;;5.75;;
56537;SDS011;42435;53.292;6.000;2023-04-05T04:16:47;12.77;;;6.32;;
56537;SDS011;42435;53.292;6.000;2023-04-05T04:19:12;13.85;;;6.82;;
56537;SDS011;42435;53.292;6.000;2023-04-05T04:21:38;10.68;;;6.22;;
56537;SDS011;42435;53.292;6.000;2023-04-05T04:24:04;12.75;;;6.55;;
56537;SDS011;42435;53.292;6.000;2023-04-05T04:26:30;11.13;;;6.40;;
56537;SDS011;42435;53.292;6.000;2023-04-05T04:29:01;12.20;;;6.88;;
56537;SDS011;42435;53.292;6.000;2023-04-05T04:31:30;14.18;;;7.38;;
56537;SDS011;42435;53.292;6.000;2023-04-05T04:33:57;11.25;;;7.03;;
56537;SDS011;42435;53.292;6.000;2023-04-05T04:36:23;14.23;;;7.57;;
56537;SDS011;42435;53.292;6.000;2023-04-05T04:39:00;11.00;;;6.90;;
56537;SDS011;42435;53.292;6.000;2023-04-05T04:41:32;10.23;;;6.18;;
56537;SDS011;42435;53.292;6.000;2023-04-05T04:44:00;13.25;;;6.90;;
56537;SDS011;42435;53.292;6.000;2023-04-05T04:46:30;11.75;;;7.60;;
56537;SDS011;42435;53.292;6.000;2023-04-05T04:49:06;11.57;;;6.90;;
56537;SDS011;42435;53.292;6.000;2023-04-05T04:51:32;11.30;;;6.18;;
56537;SDS011;42435;53.292;6.000;2023-04-05T04:53:58;13.60;;;6.75;;
56537;SDS011;42435;53.292;6.000;2023-04-05T04:56:23;12.35;;;6.65;;
56537;SDS011;42435;53.292;6.000;2023-04-05T04:58:51;9.63;;;5.90;;
56537;SDS011;42435;53.292;6.000;2023-04-05T05:01:19;10.88;;;7.07;;
56537;SDS011;42435;53.292;6.000;2023-04-05T05:03:46;13.15;;;7.32;;
56537;SDS011;42435;53.292;6.000;2023-04-05T05:06:15;12.55;;;6.80;;
56537;SDS011;42435;53.292;6.000;2023-04-05T05:08:44;11.10;;;6.20;;
56537;SDS011;42435;53.292;6.000;2023-04-05T05:11:13;14.18;;;8.05;;
56537;SDS011;42435;53.292;6.000;2023-04-05T05:13:38;10.35;;;6.13;;
56537;SDS011;42435;53.292;6.000;2023-04-05T05:16:04;11.18;;;6.78;;
56537;SDS011;42435;53.292;6.000;2023-04-05T05:18:33;11.98;;;6.50;;
56537;SDS011;42435;53.292;6.000;2023-04-05T05:20:58;13.32;;;7.28;;
56537;SDS011;42435;53.292;6.000;2023-04-05T05:23:24;14.70;;;8.40;;
56537;SDS011;42435;53.292;6.000;2023-04-05T05:25:49;16.30;;;7.95;;
56537;SDS011;42435;53.292;6.000;2023-04-05T05:28:23;11.43;;;6.38;;
56537;SDS011;42435;53.292;6.000;2023-04-05T05:30:50;10.05;;;7.07;;
56537;SDS011;42435;53.292;6.000;2023-04-05T05:33:16;14.50;;;8.48;;
56537;SDS011;42435;53.292;6.000;2023-04-05T05:35:42;19.10;;;9.07;;
56537;SDS011;42435;53.292;6.000;2023-04-05T05:38:08;14.05;;;7.35;;
56537;SDS011;42435;53.292;6.000;2023-04-05T05:40:33;12.38;;;7.57;;
56537;SDS011;42435;53.292;6.000;2023-04-05T05:42:59;13.63;;;7.97;;
56537;SDS011;42435;53.292;6.000;2023-04-05T05:45:24;11.98;;;7.63;;
56537;SDS011;42435;53.292;6.000;2023-04-05T05:47:51;13.23;;;7.80;;
56537;SDS011;42435;53.292;6.000;2023-04-05T05:50:16;15.55;;;7.88;;
56537;SDS011;42435;53.292;6.000;2023-04-05T05:52:44;16.33;;;8.82;;
56537;SDS011;42435;53.292;6.000;2023-04-05T05:55:10;18.90;;;9.93;;
56537;SDS011;42435;53.292;6.000;2023-04-05T05:57:35;17.55;;;9.88;;
56537;SDS011;42435;53.292;6.000;2023-04-05T06:00:02;15.93;;;9.23;;
56537;SDS011;42435;53.292;6.000;2023-04-05T06:02:33;22.27;;;11.88;;
56537;SDS011;42435;53.292;6.000;2023-04-05T06:04:59;18.73;;;11.07;;
56537;SDS011;42435;53.292;6.000;2023-04-05T06:07:26;21.70;;;11.45;;
56537;SDS011;42435;53.292;6.000;2023-04-05T06:09:51;21.00;;;11.23;;
56537;SDS011;42435;53.292;6.000;2023-04-05T06:12:19;20.25;;;12.23;;
56537;SDS011;42435;53.292;6.000;2023-04-05T06:14:45;23.83;;;13.20;;
56537;SDS011;42435;53.292;6.000;2023-04-05T06:17:11;24.42;;;11.70;;
56537;SDS011;42435;53.292;6.000;2023-04-05T06:19:36;25.83;;;12.95;;
56537;SDS011;42435;53.292;6.000;2023-04-05T06:22:02;20.33;;;12.02;;
56537;SDS011;42435;53.292;6.000;2023-04-05T06:24:28;20.33;;;11.90;;
56537;SDS011;42435;53.292;6.000;2023-04-05T06:26:56;25.58;;;13.40;;
56537;SDS011;42435;53.292;6.000;2023-04-05T06:29:22;24.55;;;13.57;;
56537;SDS011;42435;53.292;6.000;2023-04-05T06:31:48;25.77;;;13.77;;
56537;SDS011;42435;53.292;6.000;2023-04-05T06:34:13;20.80;;;13.45;;
56537;SDS011;42435;53.292;6.000;2023-04-05T06:36:39;22.42;;;13.55;;
56537;SDS011;42435;53.292;6.000;2023-04-05T06:39:05;25.23;;;14.90;;
56537;SDS011;42435;53.292;6.000;2023-04-05T06:41:30;27.55;;;14.77;;
56537;SDS011;42435;53.292;6.000;2023-04-05T06:43:59;20.60;;;12.75;;
56537;SDS011;42435;53.292;6.000;2023-04-05T06:46:25;23.25;;;12.90;;
56537;SDS011;42435;53.292;6.000;2023-04-05T06:48:50;21.35;;;13.95;;
56537;SDS011;42435;53.292;6.000;2023-04-05T06:51:17;23.10;;;13.75;;
56537;SDS011;42435;53.292;6.000;2023-04-05T06:53:43;23.25;;;14.15;;
56537;SDS011;42435;53.292;6.000;2023-04-05T06:56:10;23.08;;;13.85;;
56537;SDS011;42435;53.292;6.000;2023-04-05T06:58:36;23.88;;;13.80;;
56537;SDS011;42435;53.292;6.000;2023-04-05T07:01:02;19.42;;;14.05;;
56537;SDS011;42435;53.292;6.000;2023-04-05T07:03:29;22.67;;;13.75;;
56537;SDS011;42435;53.292;6.000;2023-04-05T07:05:58;20.75;;;13.68;;
56537;SDS011;42435;53.292;6.000;2023-04-05T07:08:25;19.95;;;13.07;;
56537;SDS011;42435;53.292;6.000;2023-04-05T07:10:52;20.65;;;13.20;;
56537;SDS011;42435;53.292;6.000;2023-04-05T07:13:19;19.63;;;12.85;;
56537;SDS011;42435;53.292;6.000;2023-04-05T07:15:46;19.85;;;12.25;;
56537;SDS011;42435;53.292;6.000;2023-04-05T07:18:11;20.25;;;13.38;;
56537;SDS011;42435;53.292;6.000;2023-04-05T07:20:40;20.42;;;12.98;;
56537;SDS011;42435;53.292;6.000;2023-04-05T07:23:05;18.88;;;11.57;;
56537;SDS011;42435;53.292;6.000;2023-04-05T07:25:31;19.98;;;14.13;;
56537;SDS011;42435;53.292;6.000;2023-04-05T07:27:57;22.55;;;13.05;;
56537;SDS011;42435;53.292;6.000;2023-04-05T07:30:25;17.45;;;12.13;;
56537;SDS011;42435;53.292;6.000;2023-04-05T07:32:55;18.67;;;11.40;;
56537;SDS011;42435;53.292;6.000;2023-04-05T07:35:22;21.88;;;12.05;;
56537;SDS011;42435;53.292;6.000;2023-04-05T07:37:48;20.58;;;12.45;;
56537;SDS011;42435;53.292;6.000;2023-04-05T07:40:14;18.20;;;11.70;;
56537;SDS011;42435;53.292;6.000;2023-04-05T07:42:39;20.02;;;11.88;;
56537;SDS011;42435;53.292;6.000;2023-04-05T07:45:05;15.95;;;11.10;;
56537;SDS011;42435;53.292;6.000;2023-04-05T07:47:31;20.88;;;11.68;;
56537;SDS011;42435;53.292;6.000;2023-04-05T07:49:58;15.48;;;11.30;;
56537;SDS011;42435;53.292;6.000;2023-04-05T07:52:24;17.33;;;11.13;;
56537;SDS011;42435;53.292;6.000;2023-04-05T07:54:50;18.27;;;11.05;;
56537;SDS011;42435;53.292;6.000;2023-04-05T07:57:16;18.42;;;11.52;;
56537;SDS011;42435;53.292;6.000;2023-04-05T07:59:42;15.73;;;10.88;;
56537;SDS011;42435;53.292;6.000;2023-04-05T08:02:08;16.55;;;11.80;;
56537;SDS011;42435;53.292;6.000;2023-04-05T08:04:34;16.98;;;10.57;;
56537;SDS011;42435;53.292;6.000;2023-04-05T08:06:59;20.50;;;11.73;;
56537;SDS011;42435;53.292;6.000;2023-04-05T08:09:25;17.17;;;10.05;;
56537;SDS011;42435;53.292;6.000;2023-04-05T08:11:50;14.73;;;10.55;;
56537;SDS011;42435;53.292;6.000;2023-04-05T08:14:16;14.43;;;11.23;;
56537;SDS011;42435;53.292;6.000;2023-04-05T08:16:42;14.95;;;10.75;;
56537;SDS011;42435;53.292;6.000;2023-04-05T08:19:07;12.75;;;9.25;;
56537;SDS011;42435;53.292;6.000;2023-04-05T08:21:33;15.50;;;9.75;;
56537;SDS011;42435;53.292;6.000;2023-04-05T08:23:59;12.85;;;9.35;;
56537;SDS011;42435;53.292;6.000;2023-04-05T08:26:24;12.95;;;9.50;;
56537;SDS011;42435;53.292;6.000;2023-04-05T08:28:51;15.57;;;9.93;;
56537;SDS011;42435;53.292;6.000;2023-04-05T08:31:17;13.32;;;9.18;;
56537;SDS011;42435;53.292;6.000;2023-04-05T08:33:43;10.75;;;8.07;;
56537;SDS011;42435;53.292;6.000;2023-04-05T08:36:08;10.90;;;8.38;;
56537;SDS011;42435;53.292;6.000;2023-04-05T08:38:35;10.40;;;7.90;;
56537;SDS011;42435;53.292;6.000;2023-04-05T08:41:15;8.98;;;7.90;;
56537;SDS011;42435;53.292;6.000;2023-04-05T08:46:14;12.27;;;8.35;;
56537;SDS011;42435;53.292;6.000;2023-04-05T08:48:41;8.02;;;6.15;;
56537;SDS011;42435;53.292;6.000;2023-04-05T08:51:07;11.63;;;7.88;;
56537;SDS011;42435;53.292;6.000;2023-04-05T08:53:33;11.98;;;7.38;;
56537;SDS011;42435;53.292;6.000;2023-04-05T08:56:01;8.02;;;6.90;;
56537;SDS011;42435;53.292;6.000;2023-04-05T08:58:28;10.70;;;7.25;;
56537;SDS011;42435;53.292;6.000;2023-04-05T09:00:58;10.18;;;6.97;;
56537;SDS011;42435;53.292;6.000;2023-04-05T09:03:27;10.18;;;7.70;;
56537;SDS011;42435;53.292;6.000;2023-04-05T09:05:59;13.05;;;7.68;;
56537;SDS011;42435;53.292;6.000;2023-04-05T09:08:25;13.18;;;8.20;;
56537;SDS011;42435;53.292;6.000;2023-04-05T09:10:51;10.15;;;7.60;;
56537;SDS011;42435;53.292;6.000;2023-04-05T09:13:17;10.27;;;7.65;;
56537;SDS011;42435;53.292;6.000;2023-04-05T09:15:43;9.80;;;7.07;;
56537;SDS011;42435;53.292;6.000;2023-04-05T09:18:10;11.75;;;7.80;;
56537;SDS011;42435;53.292;6.000;2023-04-05T09:20:36;12.90;;;8.15;;
56537;SDS011;42435;53.292;6.000;2023-04-05T09:23:02;13.32;;;7.90;;
56537;SDS011;42435;53.292;6.000;2023-04-05T09:27:57;12.68;;;7.90;;
56537;SDS011;42435;53.292;6.000;2023-04-05T09:30:23;10.30;;;7.38;;
56537;SDS011;42435;53.292;6.000;2023-04-05T09:32:56;12.05;;;7.53;;
56537;SDS011;42435;53.292;6.000;2023-04-05T09:35:23;10.85;;;7.63;;
56537;SDS011;42435;53.292;6.000;2023-04-05T09:37:57;12.68;;;8.45;;
56537;SDS011;42435;53.292;6.000;2023-04-05T09:40:38;10.30;;;7.65;;
56537;SDS011;42435;53.292;6.000;2023-04-05T09:43:06;10.27;;;6.85;;
56537;SDS011;42435;53.292;6.000;2023-04-05T09:45:37;9.60;;;5.95;;
56537;SDS011;42435;53.292;6.000;2023-04-05T09:48:03;10.52;;;7.47;;
56537;SDS011;42435;53.292;6.000;2023-04-05T09:50:29;11.73;;;7.60;;
56537;SDS011;42435;53.292;6.000;2023-04-05T09:53:08;9.40;;;6.97;;
56537;SDS011;42435;53.292;6.000;2023-04-05T09:55:39;9.03;;;6.57;;
56537;SDS011;42435;53.292;6.000;2023-04-05T09:58:10;8.02;;;6.35;;
56537;SDS011;42435;53.292;6.000;2023-04-05T10:00:48;9.63;;;6.45;;
56537;SDS011;42435;53.292;6.000;2023-04-05T10:03:18;10.93;;;7.57;;
56537;SDS011;42435;53.292;6.000;2023-04-05T10:05:45;11.48;;;7.43;;
56537;SDS011;42435;53.292;6.000;2023-04-05T10:08:12;13.65;;;7.78;;
56537;SDS011;42435;53.292;6.000;2023-04-05T10:10:45;8.82;;;6.55;;
56537;SDS011;42435;53.292;6.000;2023-04-05T10:13:12;9.95;;;7.43;;
56537;SDS011;42435;53.292;6.000;2023-04-05T10:15:40;10.40;;;7.78;;
56537;SDS011;42435;53.292;6.000;2023-04-05T10:18:19;10.40;;;7.65;;
56537;SDS011;42435;53.292;6.000;2023-04-05T10:20:51;9.77;;;8.00;;
56537;SDS011;42435;53.292;6.000;2023-04-05T10:23:35;10.75;;;7.60;;
56537;SDS011;42435;53.292;6.000;2023-04-05T10:28:46;9.35;;;7.88;;
56537;SDS011;42435;53.292;6.000;2023-04-05T10:34:04;10.15;;;8.10;;
56537;SDS011;42435;53.292;6.000;2023-04-05T10:36:48;10.60;;;7.82;;
56537;SDS011;42435;53.292;6.000;2023-04-05T10:41:52;8.93;;;7.53;;
56537;SDS011;42435;53.292;6.000;2023-04-05T10:44:38;10.80;;;7.78;;
56537;SDS011;42435;53.292;6.000;2023-04-05T10:47:07;8.50;;;6.85;;
56537;SDS011;42435;53.292;6.000;2023-04-05T10:49:38;9.00;;;7.25;;
56537;SDS011;42435;53.292;6.000;2023-04-05T10:52:06;8.90;;;7.03;;
56537;SDS011;42435;53.292;6.000;2023-04-05T10:54:33;9.70;;;7.50;;
56537;SDS011;42435;53.292;6.000;2023-04-05T10:57:02;8.30;;;6.57;;
56537;SDS011;42435;53.292;6.000;2023-04-05T10:59:31;8.38;;;6.70;;
56537;SDS011;42435;53.292;6.000;2023-04-05T11:01:57;9.93;;;6.97;;
56537;SDS011;42435;53.292;6.000;2023-04-05T11:04:24;8.15;;;6.60;;
56537;SDS011;42435;53.292;6.000;2023-04-05T11:07:09;8.93;;;6.93;;
56537;SDS011;42435;53.292;6.000;2023-04-05T11:09:39;10.18;;;7.30;;
56537;SDS011;42435;53.292;6.000;2023-04-05T11:12:14;8.27;;;6.30;;
56537;SDS011;42435;53.292;6.000;2023-04-05T11:14:40;9.02;;;6.80;;
56537;SDS011;42435;53.292;6.000;2023-04-05T11:17:26;8.93;;;6.70;;
56537;SDS011;42435;53.292;6.000;2023-04-05T11:20:02;8.48;;;6.47;;
56537;SDS011;42435;53.292;6.000;2023-04-05T11:22:29;8.43;;;6.80;;
56537;SDS011;42435;53.292;6.000;2023-04-05T11:24:59;9.18;;;7.13;;
56537;SDS011;42435;53.292;6.000;2023-04-05T11:27:33;9.63;;;7.65;;
56537;SDS011;42435;53.292;6.000;2023-04-05T11:30:05;10.65;;;7.35;;
56537;SDS011;42435;53.292;6.000;2023-04-05T11:32:39;8.43;;;6.80;;
56537;SDS011;42435;53.292;6.000;2023-04-05T11:35:07;8.65;;;6.82;;
56537;SDS011;42435;53.292;6.000;2023-04-05T11:40:23;8.95;;;6.97;;
56537;SDS011;42435;53.292;6.000;2023-04-05T11:43:03;10.65;;;7.07;;
56537;SDS011;42435;53.292;6.000;2023-04-05T11:45:31;7.95;;;6.90;;
56537;SDS011;42435;53.292;6.000;2023-04-05T11:48:08;8.90;;;6.35;;
56537;SDS011;42435;53.292;6.000;2023-04-05T11:50:36;8.02;;;6.22;;
56537;SDS011;42435;53.292;6.000;2023-04-05T11:53:12;9.05;;;7.03;;
56537;SDS011;42435;53.292;6.000;2023-04-05T11:55:40;8.98;;;5.88;;
56537;SDS011;42435;53.292;6.000;2023-04-05T11:58:11;8.65;;;6.20;;
56537;SDS011;42435;53.292;6.000;2023-04-05T12:00:37;10.60;;;6.30;;
56537;SDS011;42435;53.292;6.000;2023-04-05T12:03:04;9.70;;;6.22;;
56537;SDS011;42435;53.292;6.000;2023-04-05T12:08:10;10.13;;;6.75;;
56537;SDS011;42435;53.292;6.000;2023-04-05T12:10:36;8.18;;;6.13;;
56537;SDS011;42435;53.292;6.000;2023-04-05T12:13:02;8.25;;;6.32;;
56537;SDS011;42435;53.292;6.000;2023-04-05T12:15:27;8.65;;;7.07;;
56537;SDS011;42435;53.292;6.000;2023-04-05T12:17:54;9.35;;;6.53;;
56537;SDS011;42435;53.292;6.000;2023-04-05T12:20:23;9.82;;;6.13;;
56537;SDS011;42435;53.292;6.000;2023-04-05T12:22:53;7.28;;;5.85;;
56537;SDS011;42435;53.292;6.000;2023-04-05T12:25:20;7.18;;;5.80;;
56537;SDS011;42435;53.292;6.000;2023-04-05T12:27:46;6.43;;;5.75;;
56537;SDS011;42435;53.292;6.000;2023-04-05T12:30:16;8.45;;;6.00;;
56537;SDS011;42435;53.292;6.000;2023-04-05T12:32:49;7.80;;;6.05;;
56537;SDS011;42435;53.292;6.000;2023-04-05T12:35:20;7.72;;;6.10;;
56537;SDS011;42435;53.292;6.000;2023-04-05T12:37:49;7.38;;;5.93;;
56537;SDS011;42435;53.292;6.000;2023-04-05T12:40:19;8.70;;;6.50;;
56537;SDS011;42435;53.292;6.000;2023-04-05T12:42:46;7.20;;;6.00;;
56537;SDS011;42435;53.292;6.000;2023-04-05T12:45:11;7.68;;;5.28;;
56537;SDS011;42435;53.292;6.000;2023-04-05T12:47:46;7.82;;;5.82;;
56537;SDS011;42435;53.292;6.000;2023-04-05T12:50:14;9.55;;;5.88;;
56537;SDS011;42435;53.292;6.000;2023-04-05T12:52:51;9.65;;;5.65;;
56537;SDS011;42435;53.292;6.000;2023-04-05T12:55:21;6.82;;;5.63;;
56537;SDS011;42435;53.292;6.000;2023-04-05T12:57:48;6.63;;;5.78;;
56537;SDS011;42435;53.292;6.000;2023-04-05T13:00:15;6.88;;;5.63;;
56537;SDS011;42435;53.292;6.000;2023-04-05T13:02:41;7.20;;;5.72;;
56537;SDS011;42435;53.292;6.000;2023-04-05T13:05:07;8.02;;;5.80;;
56537;SDS011;42435;53.292;6.000;2023-04-05T13:07:33;8.35;;;6.10;;
56537;SDS011;42435;53.292;6.000;2023-04-05T13:09:58;6.43;;;5.82;;
56537;SDS011;42435;53.292;6.000;2023-04-05T13:12:24;7.97;;;5.75;;
56537;SDS011;42435;53.292;6.000;2023-04-05T13:14:50;6.57;;;5.57;;
56537;SDS011;42435;53.292;6.000;2023-04-05T13:17:15;7.50;;;6.00;;
56537;SDS011;42435;53.292;6.000;2023-04-05T13:19:41;10.23;;;6.50;;
56537;SDS011;42435;53.292;6.000;2023-04-05T13:22:06;8.65;;;5.88;;
56537;SDS011;42435;53.292;6.000;2023-04-05T13:24:32;8.20;;;6.15;;
56537;SDS011;42435;53.292;6.000;2023-04-05T13:26:58;6.80;;;5.32;;
56537;SDS011;42435;53.292;6.000;2023-04-05T13:29:23;8.65;;;5.88;;
56537;SDS011;42435;53.292;6.000;2023-04-05T13:31:49;6.32;;;5.47;;
56537;SDS011;42435;53.292;6.000;2023-04-05T13:34:15;6.32;;;5.15;;
56537;SDS011;42435;53.292;6.000;2023-04-05T13:36:40;8.25;;;5.80;;
56537;SDS011;42435;53.292;6.000;2023-04-05T13:39:06;10.32;;;5.43;;
56537;SDS011;42435;53.292;6.000;2023-04-05T13:41:31;8.68;;;5.57;;
56537;SDS011;42435;53.292;6.000;2023-04-05T13:43:57;8.18;;;6.40;;
56537;SDS011;42435;53.292;6.000;2023-04-05T13:46:24;7.95;;;5.65;;
56537;SDS011;42435;53.292;6.000;2023-04-05T13:48:50;7.75;;;6.13;;
56537;SDS011;42435;53.292;6.000;2023-04-05T13:51:15;8.93;;;6.60;;
56537;SDS011;42435;53.292;6.000;2023-04-05T13:53:41;7.65;;;6.22;;
56537;SDS011;42435;53.292;6.000;2023-04-05T13:56:06;8.23;;;6.40;;
56537;SDS011;42435;53.292;6.000;2023-04-05T13:58:32;7.40;;;6.25;;
56537;SDS011;42435;53.292;6.000;2023-04-05T14:00:58;8.70;;;6.13;;
56537;SDS011;42435;53.292;6.000;2023-04-05T14:03:23;10.35;;;6.30;;
56537;SDS011;42435;53.292;6.000;2023-04-05T14:05:49;8.57;;;6.75;;
56537;SDS011;42435;53.292;6.000;2023-04-05T14:08:15;7.93;;;6.25;;
56537;SDS011;42435;53.292;6.000;2023-04-05T14:10:41;8.30;;;6.68;;
56537;SDS011;42435;53.292;6.000;2023-04-05T14:13:07;9.85;;;6.88;;
56537;SDS011;42435;53.292;6.000;2023-04-05T14:15:32;10.10;;;6.30;;
56537;SDS011;42435;53.292;6.000;2023-04-05T14:17:59;7.93;;;5.95;;
56537;SDS011;42435;53.292;6.000;2023-04-05T14:20:25;9.63;;;6.72;;
56537;SDS011;42435;53.292;6.000;2023-04-05T14:22:52;10.15;;;6.10;;
56537;SDS011;42435;53.292;6.000;2023-04-05T14:25:18;10.52;;;6.82;;
56537;SDS011;42435;53.292;6.000;2023-04-05T14:27:43;9.23;;;6.70;;
56537;SDS011;42435;53.292;6.000;2023-04-05T14:30:09;9.35;;;6.70;;
56537;SDS011;42435;53.292;6.000;2023-04-05T14:32:36;8.95;;;6.70;;
56537;SDS011;42435;53.292;6.000;2023-04-05T14:35:02;8.27;;;6.78;;
56537;SDS011;42435;53.292;6.000;2023-04-05T14:37:30;7.55;;;6.13;;
56537;SDS011;42435;53.292;6.000;2023-04-05T14:39:56;9.35;;;6.88;;
56537;SDS011;42435;53.292;6.000;2023-04-05T14:42:21;9.27;;;6.43;;
56537;SDS011;42435;53.292;6.000;2023-04-05T14:44:47;11.07;;;7.18;;
56537;SDS011;42435;53.292;6.000;2023-04-05T14:47:12;6.85;;;6.15;;
56537;SDS011;42435;53.292;6.000;2023-04-05T14:49:38;8.25;;;7.00;;
56537;SDS011;42435;53.292;6.000;2023-04-05T14:52:04;8.82;;;6.95;;
56537;SDS011;42435;53.292;6.000;2023-04-05T14:54:30;8.98;;;7.15;;
56537;SDS011;42435;53.292;6.000;2023-04-05T14:56:56;9.82;;;8.10;;
56537;SDS011;42435;53.292;6.000;2023-04-05T14:59:21;10.95;;;7.50;;
56537;SDS011;42435;53.292;6.000;2023-04-05T15:01:47;8.13;;;6.70;;
56537;SDS011;42435;53.292;6.000;2023-04-05T15:04:13;9.40;;;6.70;;
56537;SDS011;42435;53.292;6.000;2023-04-05T15:06:38;8.73;;;6.53;;
56537;SDS011;42435;53.292;6.000;2023-04-05T15:09:04;9.90;;;7.53;;
56537;SDS011;42435;53.292;6.000;2023-04-05T15:11:30;9.65;;;7.50;;
56537;SDS011;42435;53.292;6.000;2023-04-05T15:13:59;6.95;;;6.03;;
56537;SDS011;42435;53.292;6.000;2023-04-05T15:16:25;8.35;;;7.00;;